Time;durP1;ratioP1;P1;durP2;ratioP2;P2;SDS_P1;SDS_P2;PMS_P1;PMS_P2;Temp;Humidity;BMP_temperature;BMP_pressure;BME280_temperature;BME280_humidity;BME280_pressure;Samples;Min_cycle;Max_cycle;Signal;HPM_P1;HPM_P2
2022/12/19 00:01:33;;;;;;;45.57;24.63;;;2.30;96.80;;;;;;4998667;28;20548;-80
2022/12/19 00:04:02;;;;;;;41.03;24.00;;;2.30;96.80;;;;;;4998964;28;20910;-79
2022/12/19 00:06:29;;;;;;;40.20;23.40;;;2.30;96.90;;;;;;4997760;28;20547;-79
2022/12/19 00:08:59;;;;;;;41.67;24.63;;;2.30;96.90;;;;;;4998317;28;20440;-79
2022/12/19 00:11:27;;;;;;;41.30;25.20;;;2.30;97.00;;;;;;4997200;28;20898;-79
2022/12/19 00:13:54;;;;;;;34.00;23.67;;;2.30;97.10;;;;;;4997389;28;20488;-79
2022/12/19 00:16:24;;;;;;;41.77;25.23;;;2.30;97.20;;;;;;4997463;28;20449;-79
2022/12/19 00:18:52;;;;;;;44.40;27.40;;;2.30;97.20;;;;;;4997519;28;20457;-79
2022/12/19 00:21:21;;;;;;;42.30;25.47;;;2.40;97.30;;;;;;4998097;28;20543;-79
2022/12/19 00:23:48;;;;;;;41.40;25.53;;;2.30;97.30;;;;;;4998685;28;20446;-80
2022/12/19 00:26:23;;;;;;;42.07;25.03;;;2.40;97.40;;;;;;4999169;28;20456;-79
2022/12/19 00:28:53;;;;;;;46.77;26.03;;;2.40;97.20;;;;;;4998778;28;20442;-80
2022/12/19 00:31:23;;;;;;;39.47;24.67;;;2.40;97.20;;;;;;4998408;28;20504;-79
2022/12/19 00:33:51;;;;;;;40.77;25.40;;;2.40;97.20;;;;;;4998242;28;20524;-80
2022/12/19 00:36:30;;;;;;;45.40;26.30;;;2.40;97.20;;;;;;4998342;28;20469;-80
2022/12/19 00:39:02;;;;;;;39.50;24.67;;;2.40;97.30;;;;;;4998047;28;20980;-80
2022/12/19 00:41:31;;;;;;;44.43;24.60;;;2.40;97.30;;;;;;4998293;28;20515;-79
2022/12/19 00:44:01;;;;;;;45.27;27.13;;;2.40;97.40;;;;;;4997338;28;20890;-79
2022/12/19 00:46:34;;;;;;;43.17;26.33;;;2.40;97.40;;;;;;4996590;28;20437;-79
2022/12/19 00:49:01;;;;;;;43.10;24.63;;;2.40;97.40;;;;;;4997162;28;20806;-79
2022/12/19 00:51:29;;;;;;;41.73;24.37;;;2.40;97.50;;;;;;4997719;28;20457;-79
2022/12/19 00:53:57;;;;;;;40.90;24.10;;;2.40;97.60;;;;;;4996405;28;20499;-79
2022/12/19 00:56:27;;;;;;;41.43;25.10;;;2.50;97.70;;;;;;4996502;28;20942;-79
2022/12/19 00:58:55;;;;;;;41.80;25.97;;;2.40;97.70;;;;;;4997697;28;20949;-80
2022/12/19 01:01:24;;;;;;;44.40;26.17;;;2.50;97.70;;;;;;5004689;28;20460;-80
2022/12/19 01:03:52;;;;;;;46.07;26.47;;;2.50;97.70;;;;;;5010260;28;20457;-79
2022/12/19 01:06:19;;;;;;;42.23;24.30;;;2.40;97.70;;;;;;5006540;28;20886;-79
2022/12/19 01:08:46;;;;;;;44.13;24.70;;;2.40;97.70;;;;;;5009060;28;20997;-80
2022/12/19 01:11:13;;;;;;;45.23;26.23;;;2.40;97.80;;;;;;5005169;28;20459;-79
2022/12/19 01:13:39;;;;;;;51.03;27.70;;;2.40;97.80;;;;;;4999985;28;20468;-79
2022/12/19 01:16:09;;;;;;;46.00;26.23;;;2.40;97.90;;;;;;5000005;28;20480;-79
2022/12/19 01:18:44;;;;;;;44.27;26.50;;;2.40;97.90;;;;;;4999179;28;20925;-79
2022/12/19 01:21:12;;;;;;;45.23;26.60;;;2.40;98.00;;;;;;4999035;28;20436;-79
2022/12/19 01:23:41;;;;;;;41.67;25.00;;;2.40;98.00;;;;;;4998207;28;20462;-79
2022/12/19 01:26:10;;;;;;;40.97;26.20;;;2.40;97.90;;;;;;4998242;28;20838;-79
2022/12/19 01:28:37;;;;;;;43.33;25.50;;;2.40;98.10;;;;;;4997249;28;20453;-79
2022/12/19 01:31:08;;;;;;;42.90;24.33;;;2.40;98.20;;;;;;4997849;28;20504;-80
2022/12/19 01:33:35;;;;;;;42.20;24.57;;;2.40;98.30;;;;;;4997457;28;20441;-79
2022/12/19 01:36:06;;;;;;;41.23;25.13;;;2.40;98.40;;;;;;4997626;28;20499;-80
2022/12/19 01:38:36;;;;;;;44.23;25.03;;;2.40;98.50;;;;;;4997618;28;20441;-80
2022/12/19 01:41:04;;;;;;;44.70;24.73;;;2.30;98.60;;;;;;4997081;28;20456;-80
2022/12/19 01:43:53;;;;;;;55.47;28.80;;;2.30;98.60;;;;;;4996532;28;20441;-80
2022/12/19 01:46:26;;;;;;;40.20;25.00;;;2.30;98.80;;;;;;4997389;28;20442;-80
2022/12/19 01:48:53;;;;;;;45.77;25.50;;;2.30;98.80;;;;;;4996827;28;20437;-80
2022/12/19 01:51:22;;;;;;;41.07;24.70;;;2.20;99.00;;;;;;4981486;28;20473;-79
2022/12/19 01:53:54;;;;;;;43.43;25.23;;;2.30;99.20;;;;;;4977032;28;20974;-79
2022/12/19 01:56:24;;;;;;;48.50;27.53;;;2.20;99.20;;;;;;4978502;28;20435;-80
2022/12/19 01:58:54;;;;;;;43.97;26.03;;;2.20;99.40;;;;;;4978049;28;20438;-80
2022/12/19 02:01:21;;;;;;;42.53;25.00;;;2.20;99.50;;;;;;4977135;28;20457;-80
2022/12/19 02:03:50;;;;;;;47.30;26.97;;;2.20;99.60;;;;;;4976647;28;20785;-79
2022/12/19 02:06:18;;;;;;;44.80;25.17;;;2.30;99.70;;;;;;4977639;28;20464;-79
2022/12/19 02:08:48;;;;;;;43.80;26.87;;;2.30;99.90;;;;;;4976625;28;20464;-80
2022/12/19 02:11:18;;;;;;;43.67;25.43;;;2.30;99.90;;;;;;4976783;28;20958;-79
2022/12/19 02:13:45;;;;;;;42.70;25.27;;;2.30;99.90;;;;;;4976283;28;20829;-79
2022/12/19 02:16:23;;;;;;;40.53;24.80;;;2.30;99.90;;;;;;4976004;28;20485;-79
2022/12/19 02:19:01;;;;;;;44.00;25.63;;;2.30;99.90;;;;;;4975777;28;20781;-79
2022/12/19 02:21:39;;;;;;;43.60;25.77;;;2.30;99.90;;;;;;4975404;28;20438;-79
2022/12/19 02:24:40;;;;;;;43.87;26.10;;;2.40;99.90;;;;;;4975457;28;20473;-79
2022/12/19 02:27:32;;;;;;;47.67;23.47;;;2.40;99.70;;;;;;4975188;28;20465;-79
2022/12/19 02:30:12;;;;;;;42.17;23.37;;;2.50;99.80;;;;;;4970435;28;20469;-78
2022/12/19 02:32:54;;;;;;;41.23;23.20;;;2.50;99.80;;;;;;4975115;28;20924;-78
2022/12/19 02:35:29;;;;;;;44.13;23.77;;;2.50;99.60;;;;;;4975332;28;20485;-79
2022/12/19 02:38:06;;;;;;;42.40;24.80;;;2.50;99.60;;;;;;4975476;28;20444;-79
2022/12/19 02:40:39;;;;;;;40.50;25.30;;;2.50;99.60;;;;;;4975803;28;20442;-78
2022/12/19 02:43:08;;;;;;;41.27;23.53;;;2.50;99.60;;;;;;4975217;28;20915;-78
2022/12/19 02:45:39;;;;;;;45.23;26.20;;;2.50;99.60;;;;;;4975657;28;20543;-78
2022/12/19 02:48:08;;;;;;;40.13;24.00;;;2.50;99.70;;;;;;4975459;28;20525;-78
2022/12/19 02:50:40;;;;;;;47.33;24.30;;;2.50;99.50;;;;;;4975291;28;20449;-78
2022/12/19 02:53:09;;;;;;;46.13;25.07;;;2.60;99.70;;;;;;4975256;28;20502;-78
2022/12/19 02:55:43;;;;;;;41.53;24.03;;;2.60;99.60;;;;;;4975095;28;20854;-78
2022/12/19 02:58:32;;;;;;;45.70;26.20;;;2.60;99.60;;;;;;4976402;28;20438;-78
2022/12/19 03:01:08;;;;;;;43.97;27.10;;;2.60;99.50;;;;;;4989753;28;20434;-78
2022/12/19 03:03:45;;;;;;;42.73;24.60;;;2.60;99.40;;;;;;4987949;28;20434;-78
2022/12/19 03:06:21;;;;;;;41.90;25.73;;;2.70;99.40;;;;;;4982241;28;20434;-78
2022/12/19 03:08:53;;;;;;;42.93;24.60;;;2.70;99.30;;;;;;4978572;28;20438;-78
2022/12/19 03:11:21;;;;;;;42.47;24.17;;;2.70;99.50;;;;;;4978910;28;20443;-77
2022/12/19 03:13:53;;;;;;;38.53;23.73;;;2.70;99.60;;;;;;4978353;28;20454;-77
2022/12/19 03:16:20;;;;;;;41.50;24.73;;;2.70;99.60;;;;;;4978501;28;20816;-77
2022/12/19 03:18:49;;;;;;;45.17;25.03;;;2.70;99.50;;;;;;4978217;28;20958;-78
2022/12/19 03:21:20;;;;;;;42.10;24.97;;;2.80;99.50;;;;;;4978510;28;21033;-78
2022/12/19 03:23:48;;;;;;;39.00;23.20;;;2.80;99.60;;;;;;4979033;28;20442;-78
2022/12/19 03:26:19;;;;;;;45.33;23.80;;;2.80;99.60;;;;;;4978564;28;20454;-78
2022/12/19 03:28:52;;;;;;;40.03;23.53;;;2.90;99.50;;;;;;4978540;28;20465;-77
2022/12/19 03:31:22;;;;;;;47.13;26.30;;;2.90;99.40;;;;;;4978192;28;20464;-77
2022/12/19 03:33:54;;;;;;;44.17;24.87;;;2.90;99.80;;;;;;4978017;28;20448;-77
2022/12/19 03:36:25;;;;;;;40.00;25.70;;;2.90;99.40;;;;;;4977961;28;21009;-77
2022/12/19 03:38:53;;;;;;;39.53;25.80;;;2.90;99.40;;;;;;4978872;28;20438;-78
2022/12/19 03:44:07;;;;;;;38.13;22.83;;;3.00;99.50;;;;;;4977869;28;20540;-77
2022/12/19 03:46:38;;;;;;;45.10;24.80;;;3.00;99.50;;;;;;4978218;28;20446;-78
2022/12/19 03:49:07;;;;;;;42.00;25.43;;;3.00;99.50;;;;;;4978687;28;20782;-78
2022/12/19 03:51:41;;;;;;;41.93;25.77;;;3.00;99.60;;;;;;4977686;28;20514;-78
2022/12/19 03:54:13;;;;;;;43.97;25.90;;;3.00;99.60;;;;;;4977405;28;20587;-78
2022/12/19 03:56:46;;;;;;;44.70;26.67;;;3.10;99.70;;;;;;4977481;28;20485;-78
2022/12/19 03:59:19;;;;;;;47.67;26.73;;;3.00;99.60;;;;;;4978098;28;20461;-78
2022/12/19 04:01:47;;;;;;;41.47;23.60;;;3.00;99.70;;;;;;4977463;28;20912;-78
2022/12/19 04:04:16;;;;;;;41.17;25.27;;;3.00;99.90;;;;;;4978003;28;20473;-77
2022/12/19 04:06:45;;;;;;;43.67;23.93;;;3.00;99.90;;;;;;4978147;28;20435;-78
2022/12/19 04:09:13;;;;;;;41.17;25.33;;;3.10;99.90;;;;;;4976475;28;20964;-77
2022/12/19 04:11:42;;;;;;;44.60;26.00;;;3.10;99.90;;;;;;4977263;28;20851;-78
2022/12/19 04:14:16;;;;;;;42.20;23.53;;;3.10;99.90;;;;;;4977260;28;20875;-78
2022/12/19 04:16:46;;;;;;;43.60;25.10;;;3.10;99.90;;;;;;4976953;28;21020;-78
2022/12/19 04:19:23;;;;;;;43.87;24.77;;;3.10;99.90;;;;;;4977731;28;20461;-78
2022/12/19 04:21:55;;;;;;;40.03;23.97;;;3.10;99.90;;;;;;4977099;28;20438;-78
2022/12/19 04:24:26;;;;;;;40.03;24.90;;;3.10;99.90;;;;;;4977008;28;20471;-78
2022/12/19 04:26:54;;;;;;;48.73;25.07;;;3.10;99.90;;;;;;4977113;28;20912;-78
2022/12/19 04:29:23;;;;;;;44.50;25.80;;;3.10;99.90;;;;;;4977412;28;20462;-78
2022/12/19 04:31:50;;;;;;;37.37;24.37;;;3.10;99.90;;;;;;4977354;28;20460;-78
2022/12/19 04:34:19;;;;;;;45.57;25.00;;;3.20;99.90;;;;;;4978168;28;20841;-78
2022/12/19 04:36:51;;;;;;;40.47;23.93;;;3.10;99.90;;;;;;4978041;28;20846;-78
2022/12/19 04:39:18;;;;;;;40.93;22.70;;;3.20;99.90;;;;;;4977936;28;20439;-79
2022/12/19 04:41:47;;;;;;;40.03;25.47;;;3.20;99.90;;;;;;4977587;28;20464;-78
2022/12/19 04:44:14;;;;;;;43.47;24.27;;;3.20;99.90;;;;;;4979675;28;20479;-78
2022/12/19 04:46:40;;;;;;;47.37;26.67;;;3.20;99.90;;;;;;4977590;28;20513;-78
2022/12/19 04:49:07;;;;;;;44.17;26.00;;;3.20;99.90;;;;;;4976236;28;21064;-78
2022/12/19 04:51:34;;;;;;;48.47;27.50;;;3.20;99.90;;;;;;4976661;28;20479;-78
2022/12/19 04:54:02;;;;;;;40.10;24.93;;;3.20;99.90;;;;;;4976455;28;20509;-79
2022/12/19 04:56:29;;;;;;;45.80;24.67;;;3.20;99.90;;;;;;4976678;28;20491;-78
2022/12/19 04:58:57;;;;;;;40.17;25.80;;;3.20;99.90;;;;;;4976516;28;20461;-78
2022/12/19 05:01:24;;;;;;;45.13;26.57;;;3.30;99.90;;;;;;4976536;28;20473;-78
2022/12/19 05:03:53;;;;;;;41.93;24.03;;;3.20;99.90;;;;;;4976279;28;20453;-78
2022/12/19 05:06:20;;;;;;;48.20;27.93;;;3.20;99.90;;;;;;4976888;28;20542;-78
2022/12/19 05:08:47;;;;;;;44.17;25.73;;;3.20;99.90;;;;;;4976075;28;20478;-78
2022/12/19 05:11:17;;;;;;;48.07;26.40;;;3.30;99.90;;;;;;4976558;28;20475;-78
2022/12/19 05:13:48;;;;;;;42.70;25.50;;;3.30;99.90;;;;;;4976121;28;20442;-78
2022/12/19 05:16:15;;;;;;;51.17;28.37;;;3.30;99.90;;;;;;4975941;28;20474;-78
2022/12/19 05:18:43;;;;;;;41.17;26.40;;;3.30;99.90;;;;;;4975563;28;20963;-78
2022/12/19 05:21:10;;;;;;;45.43;26.90;;;3.30;99.90;;;;;;4974988;28;20945;-78
2022/12/19 05:23:37;;;;;;;44.60;26.80;;;3.30;99.90;;;;;;4975807;28;20486;-78
2022/12/19 05:26:08;;;;;;;44.77;26.90;;;3.40;99.90;;;;;;4976161;28;20821;-78
2022/12/19 05:28:36;;;;;;;37.97;25.70;;;3.40;99.90;;;;;;4977357;28;20441;-78
2022/12/19 05:31:06;;;;;;;42.37;25.57;;;3.40;99.90;;;;;;4978333;28;20458;-79
2022/12/19 05:33:33;;;;;;;45.43;28.63;;;3.40;99.90;;;;;;4977634;28;20449;-78
2022/12/19 05:36:00;;;;;;;39.53;25.27;;;3.50;99.90;;;;;;4975742;28;20495;-78
2022/12/19 05:38:26;;;;;;;39.57;25.83;;;3.50;99.90;;;;;;4975660;28;20440;-78
2022/12/19 05:40:54;;;;;;;43.77;25.17;;;3.50;99.90;;;;;;4975595;28;20462;-78
2022/12/19 05:43:22;;;;;;;47.07;26.80;;;3.50;99.90;;;;;;4975867;28;20437;-78
2022/12/19 05:45:50;;;;;;;42.90;25.33;;;3.50;99.90;;;;;;4977316;28;20470;-78
2022/12/19 05:48:17;;;;;;;44.00;25.60;;;3.50;99.90;;;;;;4976638;28;20866;-79
2022/12/19 05:50:48;;;;;;;40.77;25.40;;;3.60;99.90;;;;;;4976455;28;20443;-79
2022/12/19 05:53:14;;;;;;;43.10;25.47;;;3.60;99.90;;;;;;4976137;28;20477;-79
2022/12/19 05:55:41;;;;;;;46.60;25.17;;;3.60;99.90;;;;;;4975211;28;20489;-78
2022/12/19 05:58:10;;;;;;;50.30;26.73;;;3.60;99.90;;;;;;4975081;28;20423;-77
2022/12/19 06:00:38;;;;;;;51.10;27.73;;;3.70;99.90;;;;;;4977242;28;20438;-78
2022/12/19 06:03:06;;;;;;;44.33;25.90;;;3.70;99.90;;;;;;4975605;28;20444;-78
2022/12/19 06:05:37;;;;;;;46.33;26.60;;;3.70;99.90;;;;;;4975465;28;20474;-79
2022/12/19 06:08:04;;;;;;;37.80;23.70;;;3.70;99.90;;;;;;4974923;28;20439;-78
2022/12/19 06:10:31;;;;;;;40.20;23.67;;;3.70;99.90;;;;;;4975187;28;20461;-78
2022/12/19 06:12:58;;;;;;;39.20;24.07;;;3.70;99.90;;;;;;4974973;28;20459;-78
2022/12/19 06:15:25;;;;;;;43.10;24.60;;;3.80;99.90;;;;;;4974616;28;20998;-78
2022/12/19 06:17:53;;;;;;;46.40;24.87;;;3.80;99.90;;;;;;4974901;28;20464;-77
2022/12/19 06:20:22;;;;;;;40.10;24.80;;;3.80;99.90;;;;;;4974638;28;20462;-78
2022/12/19 06:22:48;;;;;;;45.53;25.33;;;3.80;99.90;;;;;;4974903;28;20462;-77
2022/12/19 06:25:16;;;;;;;42.87;25.60;;;3.80;99.90;;;;;;4974787;28;20843;-77
2022/12/19 06:27:43;;;;;;;42.70;26.00;;;3.80;99.90;;;;;;4974854;28;20444;-77
2022/12/19 06:30:11;;;;;;;41.90;26.60;;;3.80;99.90;;;;;;4974518;28;20466;-78
2022/12/19 06:32:37;;;;;;;41.93;23.70;;;3.80;99.90;;;;;;4974781;28;20455;-77
2022/12/19 06:35:05;;;;;;;39.10;24.77;;;3.80;99.90;;;;;;4974832;28;20476;-78
2022/12/19 06:37:33;;;;;;;44.27;25.50;;;3.90;99.90;;;;;;4974595;28;20496;-78
2022/12/19 06:40:00;;;;;;;36.30;23.90;;;3.90;99.90;;;;;;4974427;28;20995;-78
2022/12/19 06:42:25;;;;;;;46.83;23.57;;;4.00;99.90;;;;;;4974640;28;20464;-78
2022/12/19 06:44:54;;;;;;;43.70;24.50;;;4.00;99.90;;;;;;4974512;28;21011;-78
2022/12/19 06:47:24;;;;;;;41.40;23.70;;;3.90;99.90;;;;;;4974287;28;20680;-78
2022/12/19 06:49:51;;;;;;;43.70;26.40;;;3.90;99.90;;;;;;4974521;28;20441;-78
2022/12/19 06:52:17;;;;;;;39.80;24.80;;;3.90;99.90;;;;;;4974608;28;20466;-78
2022/12/19 06:54:45;;;;;;;50.20;27.10;;;4.00;99.90;;;;;;4974528;28;20490;-78
2022/12/19 06:57:12;;;;;;;41.20;24.93;;;4.00;99.90;;;;;;4974442;28;20486;-78
2022/12/19 06:59:39;;;;;;;41.73;25.50;;;4.00;99.90;;;;;;4974647;28;20453;-78
2022/12/19 07:02:19;;;;;;;37.63;25.17;;;4.00;99.90;;;;;;4974694;28;20464;-77
2022/12/19 07:04:49;;;;;;;41.07;24.90;;;4.00;99.90;;;;;;4974569;28;20837;-78
2022/12/19 07:07:16;;;;;;;45.80;25.57;;;4.00;99.90;;;;;;4975212;28;20455;-78
2022/12/19 07:09:45;;;;;;;33.63;23.07;;;4.10;99.90;;;;;;4974589;28;20467;-78
2022/12/19 07:12:11;;;;;;;50.33;26.10;;;4.00;99.90;;;;;;4974250;28;20924;-77
2022/12/19 07:14:38;;;;;;;39.83;23.93;;;4.10;99.90;;;;;;4974513;28;20471;-78
2022/12/19 07:17:06;;;;;;;42.80;25.33;;;4.10;99.90;;;;;;4974225;28;20517;-78
2022/12/19 07:19:33;;;;;;;44.83;24.67;;;4.10;99.90;;;;;;4974389;28;20455;-78
2022/12/19 07:22:01;;;;;;;41.43;24.10;;;4.10;99.90;;;;;;4974363;28;20510;-78
2022/12/19 07:24:28;;;;;;;43.63;24.83;;;4.10;99.90;;;;;;4974253;28;20478;-78
2022/12/19 07:26:59;;;;;;;36.90;23.43;;;4.10;99.90;;;;;;4973852;28;20455;-78
2022/12/19 07:29:28;;;;;;;43.63;23.40;;;4.20;99.90;;;;;;4974298;28;20444;-77
2022/12/19 07:31:55;;;;;;;40.30;23.30;;;4.20;99.90;;;;;;4973872;28;20462;-77
2022/12/19 07:34:23;;;;;;;40.90;24.27;;;4.20;99.90;;;;;;4974338;28;20475;-78
2022/12/19 07:36:51;;;;;;;37.17;21.87;;;4.30;99.90;;;;;;4974119;28;20484;-78
2022/12/19 07:39:18;;;;;;;40.40;22.20;;;4.30;99.90;;;;;;4975178;28;20466;-77
2022/12/19 07:41:44;;;;;;;34.43;21.13;;;4.30;99.90;;;;;;4974843;28;20457;-78
2022/12/19 07:44:14;;;;;;;47.33;25.13;;;4.40;99.90;;;;;;4975001;28;20480;-78
2022/12/19 07:46:41;;;;;;;38.83;24.10;;;4.40;99.90;;;;;;4977600;28;20499;-78
2022/12/19 07:49:08;;;;;;;39.27;22.43;;;4.40;99.90;;;;;;4977729;28;20456;-77
2022/12/19 07:51:37;;;;;;;40.67;24.07;;;4.40;99.90;;;;;;4977832;28;20472;-78
2022/12/19 07:54:04;;;;;;;37.00;24.53;;;4.40;99.90;;;;;;4977622;28;20477;-78
2022/12/19 07:56:30;;;;;;;34.23;23.17;;;4.40;99.90;;;;;;4978006;28;20497;-77
2022/12/19 07:58:57;;;;;;;35.70;23.37;;;4.50;99.90;;;;;;4977434;28;20857;-77
2022/12/19 08:01:25;;;;;;;37.90;23.90;;;4.50;99.90;;;;;;4979811;28;20475;-77
2022/12/19 08:03:52;;;;;;;35.60;22.00;;;4.50;99.90;;;;;;4990009;28;20454;-78
2022/12/19 08:06:19;;;;;;;40.13;24.70;;;4.50;99.90;;;;;;4991324;28;20447;-78
2022/12/19 08:08:46;;;;;;;36.20;22.10;;;4.60;99.90;;;;;;4988556;28;20458;-77
2022/12/19 08:11:15;;;;;;;36.33;22.47;;;4.60;99.90;;;;;;4988200;28;20463;-76
2022/12/19 08:13:42;;;;;;;37.53;22.60;;;4.60;99.90;;;;;;4977984;28;20469;-77
2022/12/19 08:16:09;;;;;;;38.07;22.63;;;4.70;99.90;;;;;;4977402;28;20498;-77
2022/12/19 08:18:38;;;;;;;35.90;22.57;;;4.70;99.90;;;;;;4977426;28;20443;-78
2022/12/19 08:21:05;;;;;;;35.23;23.10;;;4.70;99.90;;;;;;4977437;28;20464;-77
2022/12/19 08:23:33;;;;;;;41.17;23.03;;;4.70;99.90;;;;;;4976761;28;20996;-77
2022/12/19 08:26:00;;;;;;;35.93;22.83;;;4.80;99.90;;;;;;4977423;28;20480;-78
2022/12/19 08:28:27;;;;;;;39.50;22.20;;;4.80;99.90;;;;;;4976995;28;20810;-77
2022/12/19 08:30:54;;;;;;;37.37;23.53;;;4.90;99.90;;;;;;4976944;28;20480;-77
2022/12/19 08:33:21;;;;;;;34.03;22.70;;;4.80;99.90;;;;;;4976769;28;20458;-77
2022/12/19 08:35:49;;;;;;;35.73;21.70;;;4.90;99.90;;;;;;4976587;28;20479;-78
2022/12/19 08:38:16;;;;;;;39.00;21.90;;;4.90;99.90;;;;;;4976247;28;20976;-78
2022/12/19 08:40:43;;;;;;;32.83;20.03;;;4.90;99.90;;;;;;4976653;28;20465;-78
2022/12/19 08:43:10;;;;;;;36.50;21.83;;;5.00;99.90;;;;;;4976834;28;20548;-78
2022/12/19 08:45:36;;;;;;;34.43;21.47;;;5.00;99.90;;;;;;4976463;28;20483;-78
2022/12/19 08:48:03;;;;;;;41.47;22.13;;;5.00;99.90;;;;;;4976526;28;20456;-77
2022/12/19 08:50:30;;;;;;;40.80;23.77;;;5.10;99.90;;;;;;4976685;28;20855;-78
2022/12/19 08:52:58;;;;;;;36.03;21.70;;;5.10;99.90;;;;;;4976782;28;20460;-78
2022/12/19 08:55:25;;;;;;;31.83;21.77;;;5.10;99.90;;;;;;4976150;28;20501;-78
2022/12/19 08:57:52;;;;;;;32.17;21.50;;;5.20;99.90;;;;;;4975987;28;20943;-77
2022/12/19 09:00:19;;;;;;;38.47;22.73;;;5.20;99.90;;;;;;4976558;28;20460;-77
2022/12/19 09:02:48;;;;;;;36.03;22.40;;;5.20;99.90;;;;;;4976694;28;20487;-77
2022/12/19 09:05:16;;;;;;;33.63;23.13;;;5.20;99.90;;;;;;4976453;28;20551;-77
2022/12/19 09:07:43;;;;;;;40.70;23.37;;;5.20;99.90;;;;;;4976609;28;20432;-77
2022/12/19 09:10:11;;;;;;;39.43;23.40;;;5.30;99.90;;;;;;4977509;28;20463;-76
2022/12/19 09:12:37;;;;;;;36.87;21.57;;;5.30;99.90;;;;;;4976637;28;20464;-76
2022/12/19 09:15:05;;;;;;;35.07;22.07;;;5.30;99.90;;;;;;4976044;28;20480;-76
2022/12/19 09:17:32;;;;;;;35.47;23.00;;;5.30;99.90;;;;;;4976221;28;20504;-77
2022/12/19 09:19:58;;;;;;;34.67;22.10;;;5.40;99.90;;;;;;4976530;28;20492;-76
2022/12/19 09:22:25;;;;;;;42.13;25.00;;;5.40;99.90;;;;;;4975856;28;20449;-76
2022/12/19 09:24:52;;;;;;;37.03;23.50;;;5.40;99.90;;;;;;4976110;28;20487;-77
2022/12/19 09:27:20;;;;;;;32.10;22.43;;;5.40;99.90;;;;;;4976080;28;20437;-77
2022/12/19 09:29:47;;;;;;;35.10;23.07;;;5.50;99.90;;;;;;4976374;28;20457;-77
2022/12/19 09:32:14;;;;;;;33.50;21.97;;;5.50;99.90;;;;;;4976437;28;20437;-76
2022/12/19 09:34:41;;;;;;;39.13;21.83;;;5.50;99.90;;;;;;4976861;28;20506;-77
2022/12/19 09:37:12;;;;;;;31.30;21.30;;;5.60;99.90;;;;;;4975991;28;20480;-77
2022/12/19 09:39:38;;;;;;;31.93;20.90;;;5.60;99.90;;;;;;4976064;28;20529;-77
2022/12/19 09:42:30;;;;;;;30.97;21.80;;;5.60;99.90;;;;;;4975895;28;20460;-76
2022/12/19 09:45:16;;;;;;;38.97;21.53;;;5.60;99.90;;;;;;4976089;28;20491;-76
2022/12/19 09:47:44;;;;;;;32.20;21.90;;;5.70;99.90;;;;;;4977875;28;20588;-76
2022/12/19 09:50:25;;;;;;;27.53;19.23;;;5.70;99.90;;;;;;4976888;28;20425;-78
2022/12/19 09:52:58;;;;;;;33.23;21.47;;;5.70;99.90;;;;;;4987745;28;20445;-76
2022/12/19 09:55:31;;;;;;;33.80;21.13;;;5.80;99.90;;;;;;4985360;28;20481;-77
2022/12/19 09:58:03;;;;;;;35.33;21.40;;;5.70;99.90;;;;;;4981382;28;20837;-76
2022/12/19 10:00:35;;;;;;;31.70;20.93;;;5.80;99.90;;;;;;4975918;28;20441;-77
2022/12/19 10:03:07;;;;;;;32.30;20.80;;;5.80;99.90;;;;;;4975748;28;20452;-76
2022/12/19 10:05:38;;;;;;;31.60;20.53;;;5.80;99.90;;;;;;4975168;28;20805;-76
2022/12/19 10:08:17;;;;;;;32.53;20.90;;;5.80;99.90;;;;;;4974998;28;20439;-77
2022/12/19 10:10:51;;;;;;;34.90;22.73;;;5.80;99.90;;;;;;4974767;28;20442;-76
2022/12/19 10:13:29;;;;;;;30.67;21.20;;;5.80;99.90;;;;;;4975118;28;20417;-76
2022/12/19 10:16:03;;;;;;;37.77;21.10;;;5.80;99.90;;;;;;4975087;28;20477;-77
2022/12/19 10:18:41;;;;;;;34.87;22.07;;;5.80;99.90;;;;;;4974992;28;20985;-76
2022/12/19 10:21:19;;;;;;;34.73;21.30;;;5.80;99.90;;;;;;4975123;28;20447;-76
2022/12/19 10:24:01;;;;;;;36.07;22.87;;;5.80;99.90;;;;;;4974740;28;20442;-77
2022/12/19 10:26:34;;;;;;;35.27;21.93;;;5.70;99.90;;;;;;4975363;28;20448;-76
2022/12/19 10:29:20;;;;;;;30.57;21.57;;;5.80;99.90;;;;;;4974847;28;20811;-76
2022/12/19 10:31:55;;;;;;;34.17;22.90;;;5.80;99.90;;;;;;4974695;28;20462;-76
2022/12/19 10:34:24;;;;;;;40.17;22.43;;;5.90;99.90;;;;;;4974647;28;21020;-77
2022/12/19 10:36:54;;;;;;;37.77;22.40;;;5.90;99.90;;;;;;4974809;28;20523;-76
2022/12/19 10:39:30;;;;;;;36.37;24.07;;;5.90;99.90;;;;;;4974390;28;20909;-76
2022/12/19 10:42:09;;;;;;;43.50;25.47;;;5.90;99.90;;;;;;4974901;28;20437;-75
2022/12/19 10:44:39;;;;;;;43.97;26.00;;;6.00;99.90;;;;;;4975026;28;20476;-77
2022/12/19 10:47:13;;;;;;;39.27;25.33;;;5.90;99.90;;;;;;4975341;28;20448;-77
2022/12/19 10:49:40;;;;;;;39.17;23.00;;;6.00;99.90;;;;;;4976521;28;20897;-77
2022/12/19 10:52:10;;;;;;;37.53;23.33;;;6.00;99.90;;;;;;4976222;28;20442;-77
2022/12/19 10:54:42;;;;;;;37.37;23.30;;;6.00;99.90;;;;;;4974235;28;20993;-77
2022/12/19 10:57:23;;;;;;;34.83;21.50;;;6.00;99.90;;;;;;4974513;28;20492;-76
2022/12/19 10:59:59;;;;;;;34.60;23.03;;;6.00;99.90;;;;;;4974463;28;20798;-76
2022/12/19 11:02:41;;;;;;;34.47;21.53;;;6.10;99.90;;;;;;4974798;28;20444;-76
2022/12/19 11:05:24;;;;;;;31.00;21.90;;;6.10;99.90;;;;;;4975174;28;20473;-77
2022/12/19 11:08:01;;;;;;;35.17;22.10;;;6.10;99.90;;;;;;4974596;28;20460;-77
2022/12/19 11:10:38;;;;;;;37.47;22.57;;;6.10;99.90;;;;;;4974463;28;20456;-77
2022/12/19 11:13:19;;;;;;;33.40;22.30;;;6.10;99.90;;;;;;4974340;28;20447;-76
2022/12/19 11:15:49;;;;;;;31.97;21.00;;;6.20;99.90;;;;;;4974462;28;20509;-76
2022/12/19 11:18:16;;;;;;;40.50;23.07;;;6.20;99.90;;;;;;4974857;28;20485;-76
2022/12/19 11:20:54;;;;;;;38.13;22.77;;;6.20;99.90;;;;;;4977070;28;20446;-77
2022/12/19 11:23:23;;;;;;;36.60;22.80;;;6.20;99.90;;;;;;4978260;28;20850;-77
2022/12/19 11:25:56;;;;;;;34.53;22.13;;;6.30;99.90;;;;;;4981415;28;20484;-78
2022/12/19 11:28:26;;;;;;;34.90;21.43;;;6.30;99.90;;;;;;4992495;28;20430;-77
2022/12/19 11:31:06;;;;;;;31.93;22.33;;;6.40;99.90;;;;;;4977744;28;20473;-77
2022/12/19 11:33:34;;;;;;;29.50;20.87;;;6.40;99.90;;;;;;4978701;28;20751;-78
2022/12/19 11:36:05;;;;;;;31.53;22.27;;;6.50;99.90;;;;;;4978842;28;20453;-77
2022/12/19 11:38:41;;;;;;;35.37;24.10;;;6.50;99.90;;;;;;4978142;28;20580;-77
2022/12/19 11:41:17;;;;;;;37.33;23.57;;;6.50;99.90;;;;;;4977869;28;20437;-76
2022/12/19 11:43:52;;;;;;;32.07;22.27;;;6.60;99.90;;;;;;4977768;28;20438;-77
2022/12/19 11:46:31;;;;;;;31.30;22.80;;;6.60;99.90;;;;;;4977308;28;20438;-77
2022/12/19 11:49:03;;;;;;;33.70;21.00;;;6.70;99.90;;;;;;4977256;28;20918;-77
2022/12/19 11:51:38;;;;;;;30.53;22.40;;;6.70;99.90;;;;;;4977578;28;20434;-77
2022/12/19 11:54:13;;;;;;;36.63;21.70;;;6.80;99.90;;;;;;4977509;28;20478;-77
2022/12/19 11:56:40;;;;;;;33.00;21.60;;;6.80;99.90;;;;;;4977950;28;20941;-77
2022/12/19 11:59:16;;;;;;;35.20;22.40;;;6.90;99.90;;;;;;4977224;28;20485;-78
2022/12/19 12:01:58;;;;;;;31.73;22.00;;;6.90;99.90;;;;;;4977469;28;20440;-77
2022/12/19 12:04:52;;;;;;;28.73;20.80;;;7.10;99.90;;;;;;4977288;28;20473;-78
2022/12/19 12:07:19;;;;;;;32.83;20.50;;;7.20;99.90;;;;;;4977264;28;20445;-77
2022/12/19 12:09:52;;;;;;;34.30;21.07;;;7.40;99.90;;;;;;4977458;28;20451;-78
2022/12/19 12:12:23;;;;;;;32.07;20.23;;;7.50;99.90;;;;;;4977945;28;20527;-77
2022/12/19 12:15:11;;;;;;;33.33;20.23;;;7.60;99.90;;;;;;4977358;28;20482;-78
2022/12/19 12:17:51;;;;;;;24.73;18.83;;;7.80;99.90;;;;;;4977978;28;20467;-77
2022/12/19 12:20:28;;;;;;;29.00;21.90;;;7.90;99.90;;;;;;4978002;28;20434;-77
2022/12/19 12:23:17;;;;;;;26.93;20.50;;;8.00;99.90;;;;;;4978354;28;20446;-77
2022/12/19 12:25:53;;;;;;;30.27;19.80;;;8.10;99.90;;;;;;4977657;28;21011;-77
2022/12/19 12:29:03;;;;;;;27.10;18.73;;;8.20;99.90;;;;;;4978154;28;20444;-76
2022/12/19 12:31:43;;;;;;;23.33;17.00;;;8.30;99.90;;;;;;4977476;28;20543;-76
2022/12/19 12:34:46;;;;;;;24.83;18.27;;;8.40;99.90;;;;;;4978122;28;20479;-78
2022/12/19 12:37:41;;;;;;;24.60;17.77;;;8.50;99.90;;;;;;4974655;28;21026;-77
2022/12/19 12:40:24;;;;;;;25.63;18.80;;;8.50;99.80;;;;;;4973807;28;20476;-77
2022/12/19 12:42:58;;;;;;;24.80;17.30;;;8.50;99.60;;;;;;4977197;28;20456;-77
2022/12/19 12:45:30;;;;;;;22.60;16.53;;;8.60;99.30;;;;;;4976809;28;20539;-78
2022/12/19 12:47:57;;;;;;;27.63;18.80;;;8.60;99.30;;;;;;4978449;28;20913;-77
2022/12/19 12:50:26;;;;;;;24.23;17.40;;;8.60;99.30;;;;;;4977346;28;20464;-77
2022/12/19 12:52:56;;;;;;;27.60;18.90;;;8.70;99.10;;;;;;4977141;28;20437;-78
2022/12/19 12:55:28;;;;;;;28.27;18.37;;;8.70;98.90;;;;;;4977068;28;20865;-78
2022/12/19 12:57:55;;;;;;;24.40;18.00;;;8.70;98.80;;;;;;4976815;28;20480;-77